sensor_id;sensor_type;location;lat;lon;timestamp;temperature;humidity
26326;DHT22;14032;52.510;7.342;2023-12-20T00:00:03;5.90;99.90
26326;DHT22;14032;52.510;7.342;2023-12-20T00:02:28;5.90;99.90
26326;DHT22;14032;52.510;7.342;2023-12-20T00:04:54;5.90;99.90
26326;DHT22;14032;52.510;7.342;2023-12-20T00:07:19;5.90;99.90
26326;DHT22;14032;52.510;7.342;2023-12-20T00:09:45;5.80;99.90
26326;DHT22;14032;52.510;7.342;2023-12-20T00:12:10;5.80;99.90
26326;DHT22;14032;52.510;7.342;2023-12-20T00:14:36;5.70;99.90
26326;DHT22;14032;52.510;7.342;2023-12-20T00:17:02;5.70;99.90
26326;DHT22;14032;52.510;7.342;2023-12-20T00:19:27;5.90;99.90
26326;DHT22;14032;52.510;7.342;2023-12-20T00:21:53;5.70;99.90
26326;DHT22;14032;52.510;7.342;2023-12-20T00:24:18;5.80;99.90
26326;DHT22;14032;52.510;7.342;2023-12-20T00:26:44;5.70;99.90
26326;DHT22;14032;52.510;7.342;2023-12-20T00:29:09;5.70;99.90
26326;DHT22;14032;52.510;7.342;2023-12-20T00:31:35;5.70;99.90
26326;DHT22;14032;52.510;7.342;2023-12-20T00:34:01;5.70;99.90
26326;DHT22;14032;52.510;7.342;2023-12-20T00:36:26;5.70;99.90
26326;DHT22;14032;52.510;7.342;2023-12-20T00:38:52;5.70;99.90
26326;DHT22;14032;52.510;7.342;2023-12-20T00:41:18;5.70;99.90
26326;DHT22;14032;52.510;7.342;2023-12-20T00:43:43;5.70;99.90
26326;DHT22;14032;52.510;7.342;2023-12-20T00:46:09;5.70;99.90
26326;DHT22;14032;52.510;7.342;2023-12-20T00:48:35;5.60;99.90
26326;DHT22;14032;52.510;7.342;2023-12-20T00:51:00;5.70;99.90
26326;DHT22;14032;52.510;7.342;2023-12-20T00:53:26;5.60;99.90
26326;DHT22;14032;52.510;7.342;2023-12-20T00:55:51;5.60;99.90
26326;DHT22;14032;52.510;7.342;2023-12-20T00:58:17;5.60;99.90
26326;DHT22;14032;52.510;7.342;2023-12-20T01:00:43;5.60;99.90
26326;DHT22;14032;52.510;7.342;2023-12-20T01:03:09;5.60;99.90
26326;DHT22;14032;52.510;7.342;2023-12-20T01:05:34;5.60;99.90
26326;DHT22;14032;52.510;7.342;2023-12-20T01:08:00;5.60;99.90
26326;DHT22;14032;52.510;7.342;2023-12-20T01:10:28;5.50;99.90
26326;DHT22;14032;52.510;7.342;2023-12-20T01:12:54;5.50;99.90
26326;DHT22;14032;52.510;7.342;2023-12-20T01:15:20;5.60;99.90
26326;DHT22;14032;52.510;7.342;2023-12-20T01:17:46;5.50;99.90
26326;DHT22;14032;52.510;7.342;2023-12-20T01:20:11;5.50;99.90
26326;DHT22;14032;52.510;7.342;2023-12-20T01:22:37;5.50;99.90
26326;DHT22;14032;52.510;7.342;2023-12-20T01:25:03;5.40;99.90
26326;DHT22;14032;52.510;7.342;2023-12-20T01:27:28;5.40;99.90
26326;DHT22;14032;52.510;7.342;2023-12-20T01:29:54;5.40;99.90
26326;DHT22;14032;52.510;7.342;2023-12-20T01:32:22;5.40;99.90
26326;DHT22;14032;52.510;7.342;2023-12-20T01:34:47;5.40;99.90
26326;DHT22;14032;52.510;7.342;2023-12-20T01:37:14;5.40;99.90
26326;DHT22;14032;52.510;7.342;2023-12-20T01:39:39;5.30;99.90
26326;DHT22;14032;52.510;7.342;2023-12-20T01:42:05;5.30;99.90
26326;DHT22;14032;52.510;7.342;2023-12-20T01:44:30;5.40;99.90
26326;DHT22;14032;52.510;7.342;2023-12-20T01:46:56;5.30;99.90
26326;DHT22;14032;52.510;7.342;2023-12-20T01:49:22;5.30;99.90
26326;DHT22;14032;52.510;7.342;2023-12-20T01:51:49;5.30;99.90
26326;DHT22;14032;52.510;7.342;2023-12-20T01:54:15;5.30;99.90
26326;DHT22;14032;52.510;7.342;2023-12-20T01:56:41;5.30;99.90
26326;DHT22;14032;52.510;7.342;2023-12-20T01:59:07;5.30;99.90
26326;DHT22;14032;52.510;7.342;2023-12-20T02:01:37;5.30;99.90
26326;DHT22;14032;52.510;7.342;2023-12-20T02:04:03;5.30;99.90
26326;DHT22;14032;52.510;7.342;2023-12-20T02:06:30;5.30;99.90
26326;DHT22;14032;52.510;7.342;2023-12-20T02:08:57;5.30;99.90
26326;DHT22;14032;52.510;7.342;2023-12-20T02:11:24;5.30;99.90
26326;DHT22;14032;52.510;7.342;2023-12-20T02:13:50;5.30;99.90
26326;DHT22;14032;52.510;7.342;2023-12-20T02:16:16;5.30;99.90
26326;DHT22;14032;52.510;7.342;2023-12-20T02:18:43;5.30;99.90
26326;DHT22;14032;52.510;7.342;2023-12-20T02:21:09;5.30;99.90
26326;DHT22;14032;52.510;7.342;2023-12-20T02:23:35;5.30;99.90
26326;DHT22;14032;52.510;7.342;2023-12-20T02:26:01;5.30;99.90
26326;DHT22;14032;52.510;7.342;2023-12-20T02:28:26;5.30;99.90
26326;DHT22;14032;52.510;7.342;2023-12-20T02:30:52;5.30;99.90
26326;DHT22;14032;52.510;7.342;2023-12-20T02:33:18;5.30;99.90
26326;DHT22;14032;52.510;7.342;2023-12-20T02:35:44;5.30;99.90
26326;DHT22;14032;52.510;7.342;2023-12-20T02:38:09;5.20;99.90
26326;DHT22;14032;52.510;7.342;2023-12-20T02:40:35;5.30;99.90
26326;DHT22;14032;52.510;7.342;2023-12-20T02:43:00;5.20;99.90
26326;DHT22;14032;52.510;7.342;2023-12-20T02:45:27;5.30;99.90
26326;DHT22;14032;52.510;7.342;2023-12-20T02:47:52;5.20;99.90
26326;DHT22;14032;52.510;7.342;2023-12-20T02:50:18;5.20;99.90
26326;DHT22;14032;52.510;7.342;2023-12-20T02:52:46;5.20;99.90
26326;DHT22;14032;52.510;7.342;2023-12-20T02:55:12;5.20;99.90
26326;DHT22;14032;52.510;7.342;2023-12-20T02:57:37;5.20;99.90
26326;DHT22;14032;52.510;7.342;2023-12-20T03:00:10;5.30;99.90
26326;DHT22;14032;52.510;7.342;2023-12-20T03:02:36;5.30;99.90
26326;DHT22;14032;52.510;7.342;2023-12-20T03:05:02;5.30;99.90
26326;DHT22;14032;52.510;7.342;2023-12-20T03:07:27;5.30;99.90
26326;DHT22;14032;52.510;7.342;2023-12-20T03:09:53;5.30;99.90
26326;DHT22;14032;52.510;7.342;2023-12-20T03:12:19;5.30;99.90
26326;DHT22;14032;52.510;7.342;2023-12-20T03:14:44;5.40;99.90
26326;DHT22;14032;52.510;7.342;2023-12-20T03:17:10;5.40;99.90
26326;DHT22;14032;52.510;7.342;2023-12-20T03:19:36;5.40;99.90
26326;DHT22;14032;52.510;7.342;2023-12-20T03:22:01;5.40;99.90
26326;DHT22;14032;52.510;7.342;2023-12-20T03:24:27;5.40;99.90
26326;DHT22;14032;52.510;7.342;2023-12-20T03:26:53;5.40;99.90
26326;DHT22;14032;52.510;7.342;2023-12-20T03:29:19;5.40;99.90
26326;DHT22;14032;52.510;7.342;2023-12-20T03:31:44;5.40;99.90
26326;DHT22;14032;52.510;7.342;2023-12-20T03:34:11;5.40;99.90
26326;DHT22;14032;52.510;7.342;2023-12-20T03:36:36;5.50;99.90
26326;DHT22;14032;52.510;7.342;2023-12-20T03:39:02;5.50;99.90
26326;DHT22;14032;52.510;7.342;2023-12-20T03:41:28;5.50;99.90
26326;DHT22;14032;52.510;7.342;2023-12-20T03:43:53;5.50;99.90
26326;DHT22;14032;52.510;7.342;2023-12-20T03:46:19;5.50;99.90
26326;DHT22;14032;52.510;7.342;2023-12-20T03:48:44;5.50;99.90
26326;DHT22;14032;52.510;7.342;2023-12-20T03:51:10;5.50;99.90
26326;DHT22;14032;52.510;7.342;2023-12-20T03:53:36;5.60;99.90
26326;DHT22;14032;52.510;7.342;2023-12-20T03:56:01;5.50;99.90
26326;DHT22;14032;52.510;7.342;2023-12-20T03:58:27;5.60;99.90
26326;DHT22;14032;52.510;7.342;2023-12-20T04:00:52;5.60;99.90
26326;DHT22;14032;52.510;7.342;2023-12-20T04:03:18;5.60;99.90
26326;DHT22;14032;52.510;7.342;2023-12-20T04:05:43;5.60;99.90
26326;DHT22;14032;52.510;7.342;2023-12-20T04:08:11;5.60;99.90
26326;DHT22;14032;52.510;7.342;2023-12-20T04:10:36;5.60;99.90
26326;DHT22;14032;52.510;7.342;2023-12-20T04:13:03;5.60;99.90
26326;DHT22;14032;52.510;7.342;2023-12-20T04:15:28;5.60;99.90
26326;DHT22;14032;52.510;7.342;2023-12-20T04:17:54;5.60;99.90
26326;DHT22;14032;52.510;7.342;2023-12-20T04:20:19;5.60;99.90
26326;DHT22;14032;52.510;7.342;2023-12-20T04:22:45;5.60;99.90
26326;DHT22;14032;52.510;7.342;2023-12-20T04:25:11;5.70;99.90
26326;DHT22;14032;52.510;7.342;2023-12-20T04:27:36;5.60;99.90
26326;DHT22;14032;52.510;7.342;2023-12-20T04:30:02;5.60;99.90
26326;DHT22;14032;52.510;7.342;2023-12-20T04:32:29;5.60;99.90
26326;DHT22;14032;52.510;7.342;2023-12-20T04:34:54;5.60;99.90
26326;DHT22;14032;52.510;7.342;2023-12-20T04:37:20;5.70;99.90
26326;DHT22;14032;52.510;7.342;2023-12-20T04:39:45;5.70;99.90
26326;DHT22;14032;52.510;7.342;2023-12-20T04:42:11;5.70;99.90
26326;DHT22;14032;52.510;7.342;2023-12-20T04:44:37;5.70;99.90
26326;DHT22;14032;52.510;7.342;2023-12-20T04:47:02;5.70;99.90
26326;DHT22;14032;52.510;7.342;2023-12-20T04:49:28;5.70;99.90
26326;DHT22;14032;52.510;7.342;2023-12-20T04:51:54;5.70;99.90
26326;DHT22;14032;52.510;7.342;2023-12-20T04:54:20;5.60;99.90
26326;DHT22;14032;52.510;7.342;2023-12-20T04:56:46;5.70;99.90
26326;DHT22;14032;52.510;7.342;2023-12-20T04:59:12;5.70;99.90
26326;DHT22;14032;52.510;7.342;2023-12-20T05:01:38;5.70;99.90
26326;DHT22;14032;52.510;7.342;2023-12-20T05:04:04;5.70;99.90
26326;DHT22;14032;52.510;7.342;2023-12-20T05:06:30;5.70;99.90
26326;DHT22;14032;52.510;7.342;2023-12-20T05:08:55;5.70;99.90
26326;DHT22;14032;52.510;7.342;2023-12-20T05:11:21;5.80;99.90
26326;DHT22;14032;52.510;7.342;2023-12-20T05:13:46;5.70;99.90
26326;DHT22;14032;52.510;7.342;2023-12-20T05:16:12;5.80;99.90
26326;DHT22;14032;52.510;7.342;2023-12-20T05:18:39;5.80;99.90
26326;DHT22;14032;52.510;7.342;2023-12-20T05:21:05;5.80;99.90
26326;DHT22;14032;52.510;7.342;2023-12-20T05:23:30;5.90;99.90
26326;DHT22;14032;52.510;7.342;2023-12-20T05:25:56;5.90;99.90
26326;DHT22;14032;52.510;7.342;2023-12-20T05:28:21;5.90;99.90
26326;DHT22;14032;52.510;7.342;2023-12-20T05:30:47;5.90;99.90
26326;DHT22;14032;52.510;7.342;2023-12-20T05:33:13;5.90;99.90
26326;DHT22;14032;52.510;7.342;2023-12-20T05:35:38;5.90;99.90
26326;DHT22;14032;52.510;7.342;2023-12-20T05:38:04;6.00;99.90
26326;DHT22;14032;52.510;7.342;2023-12-20T05:40:29;6.00;99.90
26326;DHT22;14032;52.510;7.342;2023-12-20T05:42:55;6.00;99.90
26326;DHT22;14032;52.510;7.342;2023-12-20T05:45:23;6.00;99.90
26326;DHT22;14032;52.510;7.342;2023-12-20T05:47:49;6.00;99.90
26326;DHT22;14032;52.510;7.342;2023-12-20T05:50:15;6.10;99.90
26326;DHT22;14032;52.510;7.342;2023-12-20T05:52:40;6.10;99.90
26326;DHT22;14032;52.510;7.342;2023-12-20T05:55:06;6.10;99.90
26326;DHT22;14032;52.510;7.342;2023-12-20T05:57:32;6.10;99.90
26326;DHT22;14032;52.510;7.342;2023-12-20T05:59:57;6.10;99.90
26326;DHT22;14032;52.510;7.342;2023-12-20T06:02:23;6.10;99.90
26326;DHT22;14032;52.510;7.342;2023-12-20T06:04:48;6.10;99.90
26326;DHT22;14032;52.510;7.342;2023-12-20T06:07:15;6.10;99.90
26326;DHT22;14032;52.510;7.342;2023-12-20T06:09:40;6.10;99.90
26326;DHT22;14032;52.510;7.342;2023-12-20T06:12:07;6.10;99.90
26326;DHT22;14032;52.510;7.342;2023-12-20T06:14:33;6.10;99.90
26326;DHT22;14032;52.510;7.342;2023-12-20T06:16:59;6.10;99.90
26326;DHT22;14032;52.510;7.342;2023-12-20T06:19:24;6.10;99.90
26326;DHT22;14032;52.510;7.342;2023-12-20T06:21:50;6.10;99.90
26326;DHT22;14032;52.510;7.342;2023-12-20T06:24:15;6.10;99.90
26326;DHT22;14032;52.510;7.342;2023-12-20T06:26:41;6.10;99.90
26326;DHT22;14032;52.510;7.342;2023-12-20T06:29:07;6.10;99.90
26326;DHT22;14032;52.510;7.342;2023-12-20T06:31:32;6.10;99.90
26326;DHT22;14032;52.510;7.342;2023-12-20T06:33:58;6.10;99.90
26326;DHT22;14032;52.510;7.342;2023-12-20T06:36:25;6.10;99.90
26326;DHT22;14032;52.510;7.342;2023-12-20T06:38:51;6.10;99.90
26326;DHT22;14032;52.510;7.342;2023-12-20T06:41:17;6.20;99.90
26326;DHT22;14032;52.510;7.342;2023-12-20T06:43:43;6.10;99.90
26326;DHT22;14032;52.510;7.342;2023-12-20T06:46:08;6.10;99.90
26326;DHT22;14032;52.510;7.342;2023-12-20T06:48:35;6.20;99.90
26326;DHT22;14032;52.510;7.342;2023-12-20T06:51:01;6.20;99.90
26326;DHT22;14032;52.510;7.342;2023-12-20T06:53:30;6.20;99.90
26326;DHT22;14032;52.510;7.342;2023-12-20T06:55:55;6.20;99.90
26326;DHT22;14032;52.510;7.342;2023-12-20T06:58:24;6.20;99.90
26326;DHT22;14032;52.510;7.342;2023-12-20T07:00:50;6.20;99.90
26326;DHT22;14032;52.510;7.342;2023-12-20T07:03:17;6.20;99.90
26326;DHT22;14032;52.510;7.342;2023-12-20T07:05:43;6.20;99.90
26326;DHT22;14032;52.510;7.342;2023-12-20T07:08:08;6.20;99.90
26326;DHT22;14032;52.510;7.342;2023-12-20T07:10:34;6.20;99.90
26326;DHT22;14032;52.510;7.342;2023-12-20T07:13:00;6.20;99.90
26326;DHT22;14032;52.510;7.342;2023-12-20T07:15:25;6.20;99.90
26326;DHT22;14032;52.510;7.342;2023-12-20T07:17:53;6.20;99.90
26326;DHT22;14032;52.510;7.342;2023-12-20T07:20:18;6.20;99.90
26326;DHT22;14032;52.510;7.342;2023-12-20T07:22:44;6.20;99.90
26326;DHT22;14032;52.510;7.342;2023-12-20T07:25:09;6.20;99.90
26326;DHT22;14032;52.510;7.342;2023-12-20T07:27:36;6.20;99.90
26326;DHT22;14032;52.510;7.342;2023-12-20T07:30:01;6.20;99.90
26326;DHT22;14032;52.510;7.342;2023-12-20T07:32:27;6.20;99.90
26326;DHT22;14032;52.510;7.342;2023-12-20T07:34:52;6.20;99.90
26326;DHT22;14032;52.510;7.342;2023-12-20T07:37:19;6.20;99.90
26326;DHT22;14032;52.510;7.342;2023-12-20T07:39:44;6.20;99.90
26326;DHT22;14032;52.510;7.342;2023-12-20T07:42:10;6.20;99.90
26326;DHT22;14032;52.510;7.342;2023-12-20T07:44:39;6.30;99.90
26326;DHT22;14032;52.510;7.342;2023-12-20T07:47:04;6.30;99.90
26326;DHT22;14032;52.510;7.342;2023-12-20T07:49:30;6.30;99.90
26326;DHT22;14032;52.510;7.342;2023-12-20T07:51:57;6.30;99.90
26326;DHT22;14032;52.510;7.342;2023-12-20T07:54:23;6.30;99.90
26326;DHT22;14032;52.510;7.342;2023-12-20T07:56:49;6.30;99.90
26326;DHT22;14032;52.510;7.342;2023-12-20T07:59:14;6.30;99.90
26326;DHT22;14032;52.510;7.342;2023-12-20T08:01:40;6.30;99.90
26326;DHT22;14032;52.510;7.342;2023-12-20T08:04:05;6.30;99.90
26326;DHT22;14032;52.510;7.342;2023-12-20T08:06:31;6.40;99.90
26326;DHT22;14032;52.510;7.342;2023-12-20T08:08:57;6.40;99.90
26326;DHT22;14032;52.510;7.342;2023-12-20T08:11:22;6.30;99.90
26326;DHT22;14032;52.510;7.342;2023-12-20T08:13:48;6.40;99.90
26326;DHT22;14032;52.510;7.342;2023-12-20T08:16:13;6.40;99.90
26326;DHT22;14032;52.510;7.342;2023-12-20T08:18:41;6.40;99.90
26326;DHT22;14032;52.510;7.342;2023-12-20T08:21:06;6.30;99.90
26326;DHT22;14032;52.510;7.342;2023-12-20T08:23:34;6.40;99.90
26326;DHT22;14032;52.510;7.342;2023-12-20T08:26:05;6.40;99.90
26326;DHT22;14032;52.510;7.342;2023-12-20T08:28:30;6.40;99.90
26326;DHT22;14032;52.510;7.342;2023-12-20T08:30:56;6.40;99.90
26326;DHT22;14032;52.510;7.342;2023-12-20T08:33:22;6.50;99.90
26326;DHT22;14032;52.510;7.342;2023-12-20T08:35:48;6.50;99.90
26326;DHT22;14032;52.510;7.342;2023-12-20T08:38:13;6.50;99.90
26326;DHT22;14032;52.510;7.342;2023-12-20T08:40:39;6.50;99.90
26326;DHT22;14032;52.510;7.342;2023-12-20T08:43:05;6.50;99.90
26326;DHT22;14032;52.510;7.342;2023-12-20T08:45:30;6.50;99.90
26326;DHT22;14032;52.510;7.342;2023-12-20T08:47:56;6.50;99.90
26326;DHT22;14032;52.510;7.342;2023-12-20T08:50:22;6.50;99.90
26326;DHT22;14032;52.510;7.342;2023-12-20T08:52:47;6.50;99.90
26326;DHT22;14032;52.510;7.342;2023-12-20T08:55:13;6.40;99.90
26326;DHT22;14032;52.510;7.342;2023-12-20T08:57:40;6.40;99.90
26326;DHT22;14032;52.510;7.342;2023-12-20T09:00:06;6.50;99.90
26326;DHT22;14032;52.510;7.342;2023-12-20T09:02:33;6.40;99.90
26326;DHT22;14032;52.510;7.342;2023-12-20T09:05:01;6.40;99.90
26326;DHT22;14032;52.510;7.342;2023-12-20T09:07:27;6.40;99.90
26326;DHT22;14032;52.510;7.342;2023-12-20T09:09:55;6.40;99.90
26326;DHT22;14032;52.510;7.342;2023-12-20T09:12:21;6.40;99.90
26326;DHT22;14032;52.510;7.342;2023-12-20T09:14:48;6.40;99.90
26326;DHT22;14032;52.510;7.342;2023-12-20T09:17:15;6.40;99.90
26326;DHT22;14032;52.510;7.342;2023-12-20T09:19:41;6.40;99.90
26326;DHT22;14032;52.510;7.342;2023-12-20T09:22:09;6.40;99.90
26326;DHT22;14032;52.510;7.342;2023-12-20T09:24:35;6.50;99.90
26326;DHT22;14032;52.510;7.342;2023-12-20T09:27:00;6.50;99.90
26326;DHT22;14032;52.510;7.342;2023-12-20T09:29:26;6.50;99.90
26326;DHT22;14032;52.510;7.342;2023-12-20T09:31:51;6.50;99.90
26326;DHT22;14032;52.510;7.342;2023-12-20T09:34:17;6.40;99.90
26326;DHT22;14032;52.510;7.342;2023-12-20T09:36:43;6.40;99.90
26326;DHT22;14032;52.510;7.342;2023-12-20T09:39:16;6.40;99.90
26326;DHT22;14032;52.510;7.342;2023-12-20T09:41:49;6.50;99.90
26326;DHT22;14032;52.510;7.342;2023-12-20T09:44:17;6.50;99.90
26326;DHT22;14032;52.510;7.342;2023-12-20T09:46:49;6.50;99.90
26326;DHT22;14032;52.510;7.342;2023-12-20T09:49:17;6.50;99.90
26326;DHT22;14032;52.510;7.342;2023-12-20T09:51:43;6.50;99.90
26326;DHT22;14032;52.510;7.342;2023-12-20T09:54:09;6.50;99.90
26326;DHT22;14032;52.510;7.342;2023-12-20T09:56:35;6.50;99.90
26326;DHT22;14032;52.510;7.342;2023-12-20T09:59:02;6.50;99.90
26326;DHT22;14032;52.510;7.342;2023-12-20T10:01:28;6.50;99.90
26326;DHT22;14032;52.510;7.342;2023-12-20T10:03:55;6.50;99.90
26326;DHT22;14032;52.510;7.342;2023-12-20T10:06:21;6.60;99.90
26326;DHT22;14032;52.510;7.342;2023-12-20T10:08:48;6.60;99.90
26326;DHT22;14032;52.510;7.342;2023-12-20T10:11:14;6.60;99.90
26326;DHT22;14032;52.510;7.342;2023-12-20T10:13:40;6.70;99.90
26326;DHT22;14032;52.510;7.342;2023-12-20T10:16:06;6.70;99.90
26326;DHT22;14032;52.510;7.342;2023-12-20T10:18:32;6.70;99.90
26326;DHT22;14032;52.510;7.342;2023-12-20T10:20:58;6.80;99.90
26326;DHT22;14032;52.510;7.342;2023-12-20T10:23:24;6.80;99.90
26326;DHT22;14032;52.510;7.342;2023-12-20T10:25:59;6.80;99.90
26326;DHT22;14032;52.510;7.342;2023-12-20T10:28:25;6.90;99.90
26326;DHT22;14032;52.510;7.342;2023-12-20T10:30:54;6.90;99.90
26326;DHT22;14032;52.510;7.342;2023-12-20T10:33:30;7.00;99.90
26326;DHT22;14032;52.510;7.342;2023-12-20T10:35:57;7.00;99.90
26326;DHT22;14032;52.510;7.342;2023-12-20T10:38:23;7.00;99.90
26326;DHT22;14032;52.510;7.342;2023-12-20T10:40:49;7.00;99.90
26326;DHT22;14032;52.510;7.342;2023-12-20T10:43:19;7.00;99.90
26326;DHT22;14032;52.510;7.342;2023-12-20T10:45:48;7.00;99.90
26326;DHT22;14032;52.510;7.342;2023-12-20T10:48:16;7.00;99.90
26326;DHT22;14032;52.510;7.342;2023-12-20T10:50:47;7.10;99.90
26326;DHT22;14032;52.510;7.342;2023-12-20T10:53:18;7.10;99.90
26326;DHT22;14032;52.510;7.342;2023-12-20T10:55:47;7.10;99.90
26326;DHT22;14032;52.510;7.342;2023-12-20T10:58:18;7.00;99.90
26326;DHT22;14032;52.510;7.342;2023-12-20T11:00:50;6.80;99.90
26326;DHT22;14032;52.510;7.342;2023-12-20T11:03:18;6.50;99.90
26326;DHT22;14032;52.510;7.342;2023-12-20T11:11:18;6.00;99.90
26326;DHT22;14032;52.510;7.342;2023-12-20T11:14:06;5.90;99.90
26326;DHT22;14032;52.510;7.342;2023-12-20T11:16:37;5.90;99.90
26326;DHT22;14032;52.510;7.342;2023-12-20T11:19:06;5.80;99.90
26326;DHT22;14032;52.510;7.342;2023-12-20T11:21:38;5.80;99.90
26326;DHT22;14032;52.510;7.342;2023-12-20T11:24:10;5.80;99.90
26326;DHT22;14032;52.510;7.342;2023-12-20T11:26:46;5.90;99.90
26326;DHT22;14032;52.510;7.342;2023-12-20T11:29:34;5.90;99.90
26326;DHT22;14032;52.510;7.342;2023-12-20T11:35:17;5.90;99.90
26326;DHT22;14032;52.510;7.342;2023-12-20T11:37:54;5.90;99.90
26326;DHT22;14032;52.510;7.342;2023-12-20T11:40:19;6.00;99.90
26326;DHT22;14032;52.510;7.342;2023-12-20T11:42:51;6.10;99.90
26326;DHT22;14032;52.510;7.342;2023-12-20T11:45:24;6.00;99.90
26326;DHT22;14032;52.510;7.342;2023-12-20T11:47:50;6.10;99.90
26326;DHT22;14032;52.510;7.342;2023-12-20T11:50:17;6.20;99.90
26326;DHT22;14032;52.510;7.342;2023-12-20T11:52:43;6.10;99.90
26326;DHT22;14032;52.510;7.342;2023-12-20T11:55:09;6.10;99.90
26326;DHT22;14032;52.510;7.342;2023-12-20T11:57:35;6.20;99.90
26326;DHT22;14032;52.510;7.342;2023-12-20T12:00:02;6.20;99.90
26326;DHT22;14032;52.510;7.342;2023-12-20T12:02:28;6.10;99.90
26326;DHT22;14032;52.510;7.342;2023-12-20T12:04:53;6.10;99.90
26326;DHT22;14032;52.510;7.342;2023-12-20T12:07:20;6.20;99.90
26326;DHT22;14032;52.510;7.342;2023-12-20T12:09:46;6.20;99.90
26326;DHT22;14032;52.510;7.342;2023-12-20T12:12:13;6.20;99.90
26326;DHT22;14032;52.510;7.342;2023-12-20T12:14:39;6.20;99.90
26326;DHT22;14032;52.510;7.342;2023-12-20T12:17:10;6.20;99.90
26326;DHT22;14032;52.510;7.342;2023-12-20T12:19:37;6.30;99.90
26326;DHT22;14032;52.510;7.342;2023-12-20T12:22:15;6.30;99.90
26326;DHT22;14032;52.510;7.342;2023-12-20T12:24:46;6.30;99.90
26326;DHT22;14032;52.510;7.342;2023-12-20T12:27:13;6.30;99.90
26326;DHT22;14032;52.510;7.342;2023-12-20T12:29:39;6.30;99.90
26326;DHT22;14032;52.510;7.342;2023-12-20T12:32:07;6.30;99.90
26326;DHT22;14032;52.510;7.342;2023-12-20T12:34:33;6.30;99.90
26326;DHT22;14032;52.510;7.342;2023-12-20T12:37:05;6.30;99.90
26326;DHT22;14032;52.510;7.342;2023-12-20T12:39:31;6.30;99.90
26326;DHT22;14032;52.510;7.342;2023-12-20T12:41:57;6.30;99.90
26326;DHT22;14032;52.510;7.342;2023-12-20T12:44:23;6.40;99.90
26326;DHT22;14032;52.510;7.342;2023-12-20T12:46:52;6.40;99.90
26326;DHT22;14032;52.510;7.342;2023-12-20T12:49:19;6.50;99.90
26326;DHT22;14032;52.510;7.342;2023-12-20T12:51:45;6.50;99.90
26326;DHT22;14032;52.510;7.342;2023-12-20T12:54:11;6.50;99.90
26326;DHT22;14032;52.510;7.342;2023-12-20T12:56:38;6.50;99.90
26326;DHT22;14032;52.510;7.342;2023-12-20T12:59:04;6.50;99.90
26326;DHT22;14032;52.510;7.342;2023-12-20T13:01:31;6.50;99.90
26326;DHT22;14032;52.510;7.342;2023-12-20T13:03:56;6.40;99.90
26326;DHT22;14032;52.510;7.342;2023-12-20T13:06:22;6.50;99.90
26326;DHT22;14032;52.510;7.342;2023-12-20T13:08:48;6.50;99.90
26326;DHT22;14032;52.510;7.342;2023-12-20T13:11:14;6.50;99.90
26326;DHT22;14032;52.510;7.342;2023-12-20T13:13:43;6.50;99.90
26326;DHT22;14032;52.510;7.342;2023-12-20T13:16:11;6.50;99.90
26326;DHT22;14032;52.510;7.342;2023-12-20T13:18:37;6.50;99.90
26326;DHT22;14032;52.510;7.342;2023-12-20T13:21:03;6.50;99.90
26326;DHT22;14032;52.510;7.342;2023-12-20T13:23:29;6.40;99.90
26326;DHT22;14032;52.510;7.342;2023-12-20T13:25:54;6.40;99.90
26326;DHT22;14032;52.510;7.342;2023-12-20T13:28:20;6.40;99.90
26326;DHT22;14032;52.510;7.342;2023-12-20T13:30:46;6.40;99.90
26326;DHT22;14032;52.510;7.342;2023-12-20T13:33:11;6.40;99.90
26326;DHT22;14032;52.510;7.342;2023-12-20T13:35:37;6.40;99.90
26326;DHT22;14032;52.510;7.342;2023-12-20T13:38:02;6.40;99.90
26326;DHT22;14032;52.510;7.342;2023-12-20T13:40:28;6.50;99.90
26326;DHT22;14032;52.510;7.342;2023-12-20T13:42:54;6.40;99.90
26326;DHT22;14032;52.510;7.342;2023-12-20T13:45:20;6.40;99.90
26326;DHT22;14032;52.510;7.342;2023-12-20T13:47:45;6.40;99.90
26326;DHT22;14032;52.510;7.342;2023-12-20T13:50:11;6.30;99.90
26326;DHT22;14032;52.510;7.342;2023-12-20T13:52:37;6.30;99.90
26326;DHT22;14032;52.510;7.342;2023-12-20T13:55:03;6.30;99.90
26326;DHT22;14032;52.510;7.342;2023-12-20T13:57:30;6.30;99.90
26326;DHT22;14032;52.510;7.342;2023-12-20T13:59:56;6.20;99.90
26326;DHT22;14032;52.510;7.342;2023-12-20T14:02:24;6.30;99.90
26326;DHT22;14032;52.510;7.342;2023-12-20T14:04:52;6.20;99.90
26326;DHT22;14032;52.510;7.342;2023-12-20T14:07:18;6.20;99.90
26326;DHT22;14032;52.510;7.342;2023-12-20T14:09:43;6.20;99.90
26326;DHT22;14032;52.510;7.342;2023-12-20T14:12:11;6.20;99.90
26326;DHT22;14032;52.510;7.342;2023-12-20T14:14:37;6.20;99.90
26326;DHT22;14032;52.510;7.342;2023-12-20T14:17:03;6.20;99.90
26326;DHT22;14032;52.510;7.342;2023-12-20T14:19:29;6.10;99.90
26326;DHT22;14032;52.510;7.342;2023-12-20T14:21:55;6.10;99.90
26326;DHT22;14032;52.510;7.342;2023-12-20T14:24:20;6.10;99.90
26326;DHT22;14032;52.510;7.342;2023-12-20T14:26:46;6.10;99.90
26326;DHT22;14032;52.510;7.342;2023-12-20T14:29:11;6.10;99.90
26326;DHT22;14032;52.510;7.342;2023-12-20T14:31:37;6.10;99.90
26326;DHT22;14032;52.510;7.342;2023-12-20T14:34:04;6.00;99.90
26326;DHT22;14032;52.510;7.342;2023-12-20T14:36:30;6.00;99.90
26326;DHT22;14032;52.510;7.342;2023-12-20T14:38:58;6.00;99.90
26326;DHT22;14032;52.510;7.342;2023-12-20T14:41:24;6.00;99.90
26326;DHT22;14032;52.510;7.342;2023-12-20T14:43:53;6.00;99.90
26326;DHT22;14032;52.510;7.342;2023-12-20T14:46:19;6.00;99.90
26326;DHT22;14032;52.510;7.342;2023-12-20T14:48:44;6.00;99.90
26326;DHT22;14032;52.510;7.342;2023-12-20T14:51:10;6.00;99.90
26326;DHT22;14032;52.510;7.342;2023-12-20T14:53:37;6.00;99.90
26326;DHT22;14032;52.510;7.342;2023-12-20T14:56:05;6.00;99.90
26326;DHT22;14032;52.510;7.342;2023-12-20T14:58:31;6.00;99.90
26326;DHT22;14032;52.510;7.342;2023-12-20T15:00:58;6.00;99.90
26326;DHT22;14032;52.510;7.342;2023-12-20T15:03:24;6.00;99.90
26326;DHT22;14032;52.510;7.342;2023-12-20T15:05:49;6.00;99.90
26326;DHT22;14032;52.510;7.342;2023-12-20T15:08:15;6.10;99.90
26326;DHT22;14032;52.510;7.342;2023-12-20T15:10:41;6.10;99.90
26326;DHT22;14032;52.510;7.342;2023-12-20T15:13:07;6.10;99.90
26326;DHT22;14032;52.510;7.342;2023-12-20T15:15:32;6.10;99.90
26326;DHT22;14032;52.510;7.342;2023-12-20T15:18:02;6.10;99.90
26326;DHT22;14032;52.510;7.342;2023-12-20T15:20:30;6.10;99.90
26326;DHT22;14032;52.510;7.342;2023-12-20T15:22:58;6.10;99.90
26326;DHT22;14032;52.510;7.342;2023-12-20T15:25:30;6.10;99.90
26326;DHT22;14032;52.510;7.342;2023-12-20T15:27:56;6.10;99.90
26326;DHT22;14032;52.510;7.342;2023-12-20T15:30:21;6.20;99.90
26326;DHT22;14032;52.510;7.342;2023-12-20T15:32:49;6.10;99.90
26326;DHT22;14032;52.510;7.342;2023-12-20T15:35:15;6.20;99.90
26326;DHT22;14032;52.510;7.342;2023-12-20T15:37:40;6.10;99.90
26326;DHT22;14032;52.510;7.342;2023-12-20T15:40:08;6.10;99.90
26326;DHT22;14032;52.510;7.342;2023-12-20T15:42:35;6.10;99.90
26326;DHT22;14032;52.510;7.342;2023-12-20T15:45:05;6.10;99.90
26326;DHT22;14032;52.510;7.342;2023-12-20T15:47:34;6.10;99.90